Airfield :
LOGIN :

Register | Disclaimer

   EN    FR    IT 

 










Legend :    VFR   Marginal VFR   IFR   Intensive IFR   Very Intensive IFR
Visi :
Ceiling :
>= 8 km
>= 3000ft
5 to 8 km
1000 to 3000 ft
1500m to 5 km
500 to 1000 ft
800 to 1500m
200 to 500 ft
< 800m
< 200 ft
Symbols :   Thunderstorms  Fog  Heavy snow  Heavy precipitations  Wind > 20 kt
SIGMETs :     Misc.  Thunderstorms  Icing  Turbulence  Mountain Waves  Volcanic Ashes







- Airport Elevation : 245 ft
- IATA code : BIQ
- Download approach charts


LFBZ - Biarritz

CURRENT METAR :
  • 241000Z AUTO 06005KT 030V120 9999 FEW019 21/16 Q1020 NOSIG

EXPIRED METARs :
  • 240930Z AUTO 07005KT 010V130 9999 BKN017 20/16 Q1020 NOSIG
  • 240900Z AUTO 07003KT 010V110 9999 SCT014 18/15 Q1020 NOSIG
  • 240830Z AUTO 09003KT 050V130 9999 BKN011 18/15 Q1020 BECMG BKN016
  • 240800Z AUTO 06003KT 360V100 9999 BKN009 17/15 Q1020 BECMG BKN016
  • 240730Z AUTO 09003KT 040V130 8000 BKN008 16/15 Q1020 BECMG BKN016

TAF AMD TAF LFBZ
Valid from the 24 at 06:00 until the 25 at 06:00 UTC


240643Z 2406/2506 VRB02KT 8000 OVC010
BECMG 2408/2410 BKN016
FM241130 34008KT 9999 SCT016
FM241830 28006KT 8000 BKN012
TEMPO 2421/2506 OVC008
PROB30
TEMPO 2500/2506 3000 -DZ OVC004
No reported NOTAMs for that airfield.



MET'MAP, your aeronautical weather chart ! - Copyright ORBIFLY December 2007 - Disclaimer

ORBIFLY MET'MAP TEAM :

Programming & Development : Alexandra Zaïnal
Concept & Development : Baudouin d'Aumeries
Co-Development & Prog : Marc-Olivier Méhu
Technical & hardware support : Manuel Goepfert

Contact : metmap@orbifly.com




SOURCES & CREDITS :

   NOAA